sensor_id;sensor_type;location;lat;lon;timestamp;P1;durP1;ratioP1;P2;durP2;ratioP2
68910;SDS011;55953;51.650;-0.522;2023-07-22T00:00:22;4.80;;;1.70;;
68910;SDS011;55953;51.650;-0.522;2023-07-22T00:03:10;3.90;;;1.70;;
68910;SDS011;55953;51.650;-0.522;2023-07-22T00:05:39;4.50;;;1.90;;
68910;SDS011;55953;51.650;-0.522;2023-07-22T00:08:07;3.90;;;1.60;;
68910;SDS011;55953;51.650;-0.522;2023-07-22T00:10:40;5.60;;;1.80;;
68910;SDS011;55953;51.650;-0.522;2023-07-22T00:13:09;3.10;;;1.70;;
68910;SDS011;55953;51.650;-0.522;2023-07-22T00:15:37;3.10;;;1.50;;
68910;SDS011;55953;51.650;-0.522;2023-07-22T00:18:05;3.70;;;1.70;;
68910;SDS011;55953;51.650;-0.522;2023-07-22T00:20:33;5.20;;;1.80;;
68910;SDS011;55953;51.650;-0.522;2023-07-22T00:23:01;3.50;;;1.70;;
68910;SDS011;55953;51.650;-0.522;2023-07-22T00:25:29;4.70;;;1.80;;
68910;SDS011;55953;51.650;-0.522;2023-07-22T00:27:56;4.20;;;1.80;;
68910;SDS011;55953;51.650;-0.522;2023-07-22T00:30:24;3.50;;;1.70;;
68910;SDS011;55953;51.650;-0.522;2023-07-22T00:32:54;4.30;;;1.60;;
68910;SDS011;55953;51.650;-0.522;2023-07-22T00:35:21;4.50;;;1.70;;
68910;SDS011;55953;51.650;-0.522;2023-07-22T00:37:49;3.80;;;1.70;;
68910;SDS011;55953;51.650;-0.522;2023-07-22T00:40:18;4.00;;;1.80;;
68910;SDS011;55953;51.650;-0.522;2023-07-22T00:42:46;5.60;;;2.70;;
68910;SDS011;55953;51.650;-0.522;2023-07-22T00:45:14;4.70;;;1.70;;
68910;SDS011;55953;51.650;-0.522;2023-07-22T00:47:42;2.90;;;1.80;;
68910;SDS011;55953;51.650;-0.522;2023-07-22T00:50:12;4.70;;;1.70;;
68910;SDS011;55953;51.650;-0.522;2023-07-22T00:52:40;4.00;;;1.70;;
68910;SDS011;55953;51.650;-0.522;2023-07-22T00:55:08;4.20;;;2.20;;
68910;SDS011;55953;51.650;-0.522;2023-07-22T00:57:36;4.50;;;1.70;;
68910;SDS011;55953;51.650;-0.522;2023-07-22T01:00:06;4.80;;;1.90;;
68910;SDS011;55953;51.650;-0.522;2023-07-22T01:02:34;4.50;;;1.90;;
68910;SDS011;55953;51.650;-0.522;2023-07-22T01:05:02;5.70;;;1.90;;
68910;SDS011;55953;51.650;-0.522;2023-07-22T01:07:31;5.00;;;2.70;;
68910;SDS011;55953;51.650;-0.522;2023-07-22T01:09:58;6.30;;;2.10;;
68910;SDS011;55953;51.650;-0.522;2023-07-22T01:12:27;3.30;;;1.90;;
68910;SDS011;55953;51.650;-0.522;2023-07-22T01:14:54;3.60;;;2.00;;
68910;SDS011;55953;51.650;-0.522;2023-07-22T01:17:22;4.10;;;2.30;;
68910;SDS011;55953;51.650;-0.522;2023-07-22T01:19:51;5.60;;;2.30;;
68910;SDS011;55953;51.650;-0.522;2023-07-22T01:22:19;3.20;;;1.70;;
68910;SDS011;55953;51.650;-0.522;2023-07-22T01:24:47;3.40;;;1.50;;
68910;SDS011;55953;51.650;-0.522;2023-07-22T01:27:15;5.90;;;2.20;;
68910;SDS011;55953;51.650;-0.522;2023-07-22T01:29:42;3.70;;;2.00;;
68910;SDS011;55953;51.650;-0.522;2023-07-22T01:32:11;5.50;;;2.00;;
68910;SDS011;55953;51.650;-0.522;2023-07-22T01:34:39;4.70;;;2.00;;
68910;SDS011;55953;51.650;-0.522;2023-07-22T01:37:07;4.80;;;2.00;;
68910;SDS011;55953;51.650;-0.522;2023-07-22T01:39:37;4.50;;;2.10;;
68910;SDS011;55953;51.650;-0.522;2023-07-22T01:42:05;4.00;;;1.80;;
68910;SDS011;55953;51.650;-0.522;2023-07-22T01:44:33;6.70;;;2.00;;
68910;SDS011;55953;51.650;-0.522;2023-07-22T01:47:04;6.30;;;1.80;;
68910;SDS011;55953;51.650;-0.522;2023-07-22T01:49:32;4.60;;;2.00;;
68910;SDS011;55953;51.650;-0.522;2023-07-22T01:52:01;6.00;;;1.60;;
68910;SDS011;55953;51.650;-0.522;2023-07-22T01:54:29;3.90;;;1.80;;
68910;SDS011;55953;51.650;-0.522;2023-07-22T01:56:56;4.40;;;1.70;;
68910;SDS011;55953;51.650;-0.522;2023-07-22T01:59:24;4.50;;;1.90;;
68910;SDS011;55953;51.650;-0.522;2023-07-22T02:01:52;4.00;;;1.70;;
68910;SDS011;55953;51.650;-0.522;2023-07-22T02:04:20;4.80;;;1.70;;
68910;SDS011;55953;51.650;-0.522;2023-07-22T02:06:48;4.30;;;1.90;;
68910;SDS011;55953;51.650;-0.522;2023-07-22T02:09:16;5.00;;;1.70;;
68910;SDS011;55953;51.650;-0.522;2023-07-22T02:11:43;4.80;;;1.80;;
68910;SDS011;55953;51.650;-0.522;2023-07-22T02:14:11;5.60;;;2.00;;
68910;SDS011;55953;51.650;-0.522;2023-07-22T02:16:40;4.90;;;1.60;;
68910;SDS011;55953;51.650;-0.522;2023-07-22T02:19:08;6.10;;;1.90;;
68910;SDS011;55953;51.650;-0.522;2023-07-22T02:21:40;3.40;;;1.70;;
68910;SDS011;55953;51.650;-0.522;2023-07-22T02:24:09;3.30;;;1.70;;
68910;SDS011;55953;51.650;-0.522;2023-07-22T02:26:37;4.20;;;1.80;;
68910;SDS011;55953;51.650;-0.522;2023-07-22T02:29:05;3.40;;;1.80;;
68910;SDS011;55953;51.650;-0.522;2023-07-22T02:31:33;3.50;;;1.60;;
68910;SDS011;55953;51.650;-0.522;2023-07-22T02:34:01;4.30;;;1.70;;
68910;SDS011;55953;51.650;-0.522;2023-07-22T02:36:29;3.50;;;1.90;;
68910;SDS011;55953;51.650;-0.522;2023-07-22T02:38:57;3.90;;;2.10;;
68910;SDS011;55953;51.650;-0.522;2023-07-22T02:41:25;3.40;;;1.60;;
68910;SDS011;55953;51.650;-0.522;2023-07-22T02:43:53;5.90;;;1.80;;
68910;SDS011;55953;51.650;-0.522;2023-07-22T02:46:22;6.10;;;2.00;;
68910;SDS011;55953;51.650;-0.522;2023-07-22T02:48:50;5.40;;;1.90;;
68910;SDS011;55953;51.650;-0.522;2023-07-22T02:51:18;4.00;;;2.00;;
68910;SDS011;55953;51.650;-0.522;2023-07-22T02:53:46;5.80;;;1.80;;
68910;SDS011;55953;51.650;-0.522;2023-07-22T02:56:14;6.10;;;1.80;;
68910;SDS011;55953;51.650;-0.522;2023-07-22T02:58:42;5.40;;;1.80;;
68910;SDS011;55953;51.650;-0.522;2023-07-22T03:01:11;4.10;;;1.90;;
68910;SDS011;55953;51.650;-0.522;2023-07-22T03:03:38;4.20;;;2.00;;
68910;SDS011;55953;51.650;-0.522;2023-07-22T03:06:08;5.40;;;1.70;;
68910;SDS011;55953;51.650;-0.522;2023-07-22T03:08:37;4.00;;;1.80;;
68910;SDS011;55953;51.650;-0.522;2023-07-22T03:11:05;3.80;;;1.60;;
68910;SDS011;55953;51.650;-0.522;2023-07-22T03:13:33;4.90;;;1.70;;
68910;SDS011;55953;51.650;-0.522;2023-07-22T03:16:02;4.20;;;1.80;;
68910;SDS011;55953;51.650;-0.522;2023-07-22T03:18:33;4.50;;;1.90;;
68910;SDS011;55953;51.650;-0.522;2023-07-22T03:21:01;4.70;;;1.70;;
68910;SDS011;55953;51.650;-0.522;2023-07-22T03:23:29;5.60;;;1.90;;
68910;SDS011;55953;51.650;-0.522;2023-07-22T03:25:57;3.70;;;1.80;;
68910;SDS011;55953;51.650;-0.522;2023-07-22T03:28:25;4.60;;;1.80;;
68910;SDS011;55953;51.650;-0.522;2023-07-22T03:30:53;3.80;;;1.70;;
68910;SDS011;55953;51.650;-0.522;2023-07-22T03:33:21;4.90;;;1.70;;
68910;SDS011;55953;51.650;-0.522;2023-07-22T03:35:49;3.40;;;1.80;;
68910;SDS011;55953;51.650;-0.522;2023-07-22T03:38:16;8.50;;;2.30;;
68910;SDS011;55953;51.650;-0.522;2023-07-22T03:40:45;4.60;;;2.00;;
68910;SDS011;55953;51.650;-0.522;2023-07-22T03:43:12;3.90;;;2.00;;
68910;SDS011;55953;51.650;-0.522;2023-07-22T03:45:40;3.80;;;1.90;;
68910;SDS011;55953;51.650;-0.522;2023-07-22T03:48:08;4.70;;;1.80;;
68910;SDS011;55953;51.650;-0.522;2023-07-22T03:50:36;4.10;;;1.80;;
68910;SDS011;55953;51.650;-0.522;2023-07-22T03:53:04;4.70;;;2.00;;
68910;SDS011;55953;51.650;-0.522;2023-07-22T03:55:32;4.70;;;1.70;;
68910;SDS011;55953;51.650;-0.522;2023-07-22T03:58:00;4.70;;;1.80;;
68910;SDS011;55953;51.650;-0.522;2023-07-22T04:00:28;4.40;;;1.90;;
68910;SDS011;55953;51.650;-0.522;2023-07-22T04:02:55;4.30;;;1.80;;
68910;SDS011;55953;51.650;-0.522;2023-07-22T04:05:23;5.40;;;2.10;;
68910;SDS011;55953;51.650;-0.522;2023-07-22T04:07:51;6.00;;;2.20;;
68910;SDS011;55953;51.650;-0.522;2023-07-22T04:10:19;6.20;;;2.00;;
68910;SDS011;55953;51.650;-0.522;2023-07-22T04:12:47;6.00;;;2.00;;
68910;SDS011;55953;51.650;-0.522;2023-07-22T04:15:15;4.20;;;1.80;;
68910;SDS011;55953;51.650;-0.522;2023-07-22T04:17:44;4.00;;;1.90;;
68910;SDS011;55953;51.650;-0.522;2023-07-22T04:20:12;6.60;;;2.20;;
68910;SDS011;55953;51.650;-0.522;2023-07-22T04:22:41;6.30;;;2.30;;
68910;SDS011;55953;51.650;-0.522;2023-07-22T04:25:09;4.40;;;1.90;;
68910;SDS011;55953;51.650;-0.522;2023-07-22T04:27:37;5.50;;;2.00;;
68910;SDS011;55953;51.650;-0.522;2023-07-22T04:30:05;3.70;;;2.00;;
68910;SDS011;55953;51.650;-0.522;2023-07-22T04:32:33;4.70;;;1.80;;
68910;SDS011;55953;51.650;-0.522;2023-07-22T04:35:01;4.50;;;1.90;;
68910;SDS011;55953;51.650;-0.522;2023-07-22T04:37:30;4.30;;;2.10;;
68910;SDS011;55953;51.650;-0.522;2023-07-22T04:39:59;5.00;;;2.00;;
68910;SDS011;55953;51.650;-0.522;2023-07-22T04:42:27;3.80;;;1.80;;
68910;SDS011;55953;51.650;-0.522;2023-07-22T04:44:55;3.10;;;1.70;;
68910;SDS011;55953;51.650;-0.522;2023-07-22T04:47:23;6.50;;;2.50;;
68910;SDS011;55953;51.650;-0.522;2023-07-22T04:49:50;3.80;;;1.70;;
68910;SDS011;55953;51.650;-0.522;2023-07-22T04:52:18;4.90;;;1.70;;
68910;SDS011;55953;51.650;-0.522;2023-07-22T04:54:46;4.20;;;1.90;;
68910;SDS011;55953;51.650;-0.522;2023-07-22T04:57:15;4.60;;;1.70;;
68910;SDS011;55953;51.650;-0.522;2023-07-22T04:59:44;4.20;;;1.90;;
68910;SDS011;55953;51.650;-0.522;2023-07-22T05:02:12;6.00;;;1.80;;
68910;SDS011;55953;51.650;-0.522;2023-07-22T05:04:40;3.50;;;1.50;;
68910;SDS011;55953;51.650;-0.522;2023-07-22T05:07:08;4.90;;;1.80;;
68910;SDS011;55953;51.650;-0.522;2023-07-22T05:09:36;7.50;;;1.90;;
68910;SDS011;55953;51.650;-0.522;2023-07-22T05:12:05;4.50;;;1.80;;
68910;SDS011;55953;51.650;-0.522;2023-07-22T05:14:33;4.10;;;1.90;;
68910;SDS011;55953;51.650;-0.522;2023-07-22T05:17:00;3.90;;;1.80;;
68910;SDS011;55953;51.650;-0.522;2023-07-22T05:19:28;5.40;;;1.80;;
68910;SDS011;55953;51.650;-0.522;2023-07-22T05:21:56;3.60;;;1.60;;
68910;SDS011;55953;51.650;-0.522;2023-07-22T05:24:24;4.10;;;1.60;;
68910;SDS011;55953;51.650;-0.522;2023-07-22T05:26:52;4.10;;;1.80;;
68910;SDS011;55953;51.650;-0.522;2023-07-22T05:29:35;4.20;;;1.50;;
68910;SDS011;55953;51.650;-0.522;2023-07-22T05:32:04;4.30;;;1.80;;
68910;SDS011;55953;51.650;-0.522;2023-07-22T05:34:38;2.80;;;1.50;;
68910;SDS011;55953;51.650;-0.522;2023-07-22T05:37:06;3.50;;;1.50;;
68910;SDS011;55953;51.650;-0.522;2023-07-22T05:39:34;4.20;;;1.60;;
68910;SDS011;55953;51.650;-0.522;2023-07-22T05:42:01;6.50;;;1.70;;
68910;SDS011;55953;51.650;-0.522;2023-07-22T05:44:29;4.00;;;1.60;;
68910;SDS011;55953;51.650;-0.522;2023-07-22T05:46:57;4.90;;;1.70;;
68910;SDS011;55953;51.650;-0.522;2023-07-22T05:49:25;4.60;;;1.60;;
68910;SDS011;55953;51.650;-0.522;2023-07-22T05:51:53;6.40;;;1.80;;
68910;SDS011;55953;51.650;-0.522;2023-07-22T05:54:21;3.10;;;1.50;;
68910;SDS011;55953;51.650;-0.522;2023-07-22T05:56:49;4.80;;;1.60;;
68910;SDS011;55953;51.650;-0.522;2023-07-22T05:59:17;3.70;;;1.60;;
68910;SDS011;55953;51.650;-0.522;2023-07-22T06:04:17;2.80;;;1.40;;
68910;SDS011;55953;51.650;-0.522;2023-07-22T06:06:45;3.70;;;1.60;;
68910;SDS011;55953;51.650;-0.522;2023-07-22T06:09:12;2.50;;;1.40;;
68910;SDS011;55953;51.650;-0.522;2023-07-22T06:11:40;3.30;;;1.40;;
68910;SDS011;55953;51.650;-0.522;2023-07-22T06:14:08;3.00;;;1.40;;
68910;SDS011;55953;51.650;-0.522;2023-07-22T06:16:36;3.40;;;1.30;;
68910;SDS011;55953;51.650;-0.522;2023-07-22T06:19:04;4.10;;;1.60;;
68910;SDS011;55953;51.650;-0.522;2023-07-22T06:21:32;4.30;;;1.80;;
68910;SDS011;55953;51.650;-0.522;2023-07-22T06:23:59;3.80;;;1.50;;
68910;SDS011;55953;51.650;-0.522;2023-07-22T06:26:27;3.70;;;1.40;;
68910;SDS011;55953;51.650;-0.522;2023-07-22T06:28:56;3.40;;;1.60;;
68910;SDS011;55953;51.650;-0.522;2023-07-22T06:31:24;3.50;;;1.50;;
68910;SDS011;55953;51.650;-0.522;2023-07-22T06:33:57;4.20;;;1.40;;
68910;SDS011;55953;51.650;-0.522;2023-07-22T06:36:27;7.20;;;1.70;;
68910;SDS011;55953;51.650;-0.522;2023-07-22T06:38:56;5.80;;;1.80;;
68910;SDS011;55953;51.650;-0.522;2023-07-22T06:41:24;2.70;;;1.50;;
68910;SDS011;55953;51.650;-0.522;2023-07-22T06:43:52;2.90;;;1.40;;
68910;SDS011;55953;51.650;-0.522;2023-07-22T06:46:20;6.90;;;1.60;;
68910;SDS011;55953;51.650;-0.522;2023-07-22T06:48:48;5.20;;;1.70;;
68910;SDS011;55953;51.650;-0.522;2023-07-22T06:51:16;6.00;;;1.70;;
68910;SDS011;55953;51.650;-0.522;2023-07-22T06:53:44;5.10;;;1.80;;
68910;SDS011;55953;51.650;-0.522;2023-07-22T06:56:12;4.60;;;1.50;;
68910;SDS011;55953;51.650;-0.522;2023-07-22T06:58:39;5.20;;;1.40;;
68910;SDS011;55953;51.650;-0.522;2023-07-22T07:01:07;5.70;;;1.70;;
68910;SDS011;55953;51.650;-0.522;2023-07-22T07:03:35;3.70;;;1.70;;
68910;SDS011;55953;51.650;-0.522;2023-07-22T07:06:03;3.70;;;1.80;;
68910;SDS011;55953;51.650;-0.522;2023-07-22T07:08:31;6.00;;;2.40;;
68910;SDS011;55953;51.650;-0.522;2023-07-22T07:10:59;4.40;;;1.40;;
68910;SDS011;55953;51.650;-0.522;2023-07-22T07:13:28;6.40;;;2.20;;
68910;SDS011;55953;51.650;-0.522;2023-07-22T07:16:19;4.80;;;1.60;;
68910;SDS011;55953;51.650;-0.522;2023-07-22T07:18:53;4.80;;;1.50;;
68910;SDS011;55953;51.650;-0.522;2023-07-22T07:21:22;4.60;;;1.50;;
68910;SDS011;55953;51.650;-0.522;2023-07-22T07:23:51;6.90;;;1.70;;
68910;SDS011;55953;51.650;-0.522;2023-07-22T07:26:20;2.90;;;1.60;;
68910;SDS011;55953;51.650;-0.522;2023-07-22T07:28:49;4.20;;;1.60;;
68910;SDS011;55953;51.650;-0.522;2023-07-22T07:31:18;4.20;;;2.20;;
68910;SDS011;55953;51.650;-0.522;2023-07-22T07:33:47;5.40;;;1.50;;
68910;SDS011;55953;51.650;-0.522;2023-07-22T07:36:14;4.50;;;1.40;;
68910;SDS011;55953;51.650;-0.522;2023-07-22T07:38:42;6.00;;;1.60;;
68910;SDS011;55953;51.650;-0.522;2023-07-22T07:41:10;4.50;;;1.60;;
68910;SDS011;55953;51.650;-0.522;2023-07-22T07:43:42;3.50;;;1.50;;
68910;SDS011;55953;51.650;-0.522;2023-07-22T07:46:24;3.90;;;1.70;;
68910;SDS011;55953;51.650;-0.522;2023-07-22T07:48:56;4.30;;;1.40;;
68910;SDS011;55953;51.650;-0.522;2023-07-22T07:51:30;3.60;;;1.80;;
68910;SDS011;55953;51.650;-0.522;2023-07-22T07:53:59;4.00;;;1.40;;
68910;SDS011;55953;51.650;-0.522;2023-07-22T07:56:27;5.30;;;1.70;;
68910;SDS011;55953;51.650;-0.522;2023-07-22T07:58:57;5.20;;;2.20;;
68910;SDS011;55953;51.650;-0.522;2023-07-22T08:01:25;5.30;;;1.80;;
68910;SDS011;55953;51.650;-0.522;2023-07-22T08:03:53;4.60;;;2.00;;
68910;SDS011;55953;51.650;-0.522;2023-07-22T08:06:21;7.70;;;2.00;;
68910;SDS011;55953;51.650;-0.522;2023-07-22T08:08:50;4.50;;;1.70;;
68910;SDS011;55953;51.650;-0.522;2023-07-22T08:11:18;5.10;;;1.60;;
68910;SDS011;55953;51.650;-0.522;2023-07-22T08:13:45;4.10;;;1.80;;
68910;SDS011;55953;51.650;-0.522;2023-07-22T08:16:13;8.20;;;1.80;;
68910;SDS011;55953;51.650;-0.522;2023-07-22T08:18:41;3.60;;;1.90;;
68910;SDS011;55953;51.650;-0.522;2023-07-22T08:21:09;5.00;;;1.90;;
68910;SDS011;55953;51.650;-0.522;2023-07-22T08:23:38;6.30;;;1.80;;
68910;SDS011;55953;51.650;-0.522;2023-07-22T08:26:05;4.60;;;2.20;;
68910;SDS011;55953;51.650;-0.522;2023-07-22T08:28:34;4.70;;;2.00;;
68910;SDS011;55953;51.650;-0.522;2023-07-22T08:31:02;5.60;;;1.80;;
68910;SDS011;55953;51.650;-0.522;2023-07-22T08:33:30;5.30;;;1.90;;
68910;SDS011;55953;51.650;-0.522;2023-07-22T08:36:01;5.70;;;2.30;;
68910;SDS011;55953;51.650;-0.522;2023-07-22T08:38:30;4.10;;;2.40;;
68910;SDS011;55953;51.650;-0.522;2023-07-22T08:40:58;5.90;;;2.40;;
68910;SDS011;55953;51.650;-0.522;2023-07-22T08:43:28;6.00;;;2.40;;
68910;SDS011;55953;51.650;-0.522;2023-07-22T08:46:00;4.40;;;2.20;;
68910;SDS011;55953;51.650;-0.522;2023-07-22T08:48:31;5.10;;;2.10;;
68910;SDS011;55953;51.650;-0.522;2023-07-22T08:53:37;5.80;;;2.30;;
68910;SDS011;55953;51.650;-0.522;2023-07-22T08:56:05;4.90;;;2.50;;
68910;SDS011;55953;51.650;-0.522;2023-07-22T08:58:34;5.90;;;2.50;;
68910;SDS011;55953;51.650;-0.522;2023-07-22T09:01:04;5.60;;;2.70;;
68910;SDS011;55953;51.650;-0.522;2023-07-22T09:03:33;4.10;;;2.30;;
68910;SDS011;55953;51.650;-0.522;2023-07-22T09:06:01;5.10;;;2.50;;
68910;SDS011;55953;51.650;-0.522;2023-07-22T09:08:33;4.60;;;2.40;;
68910;SDS011;55953;51.650;-0.522;2023-07-22T09:11:01;7.90;;;2.20;;
68910;SDS011;55953;51.650;-0.522;2023-07-22T09:13:30;7.80;;;2.70;;
68910;SDS011;55953;51.650;-0.522;2023-07-22T09:15:59;4.60;;;2.20;;
68910;SDS011;55953;51.650;-0.522;2023-07-22T09:18:28;6.10;;;2.50;;
68910;SDS011;55953;51.650;-0.522;2023-07-22T09:20:55;5.10;;;2.40;;
68910;SDS011;55953;51.650;-0.522;2023-07-22T09:23:37;6.50;;;2.60;;
68910;SDS011;55953;51.650;-0.522;2023-07-22T09:26:14;6.60;;;2.20;;
68910;SDS011;55953;51.650;-0.522;2023-07-22T09:28:50;6.20;;;2.40;;
68910;SDS011;55953;51.650;-0.522;2023-07-22T09:31:25;5.70;;;2.50;;
68910;SDS011;55953;51.650;-0.522;2023-07-22T09:33:54;5.10;;;2.40;;
68910;SDS011;55953;51.650;-0.522;2023-07-22T09:36:22;5.70;;;2.30;;
68910;SDS011;55953;51.650;-0.522;2023-07-22T09:39:00;4.70;;;2.40;;
68910;SDS011;55953;51.650;-0.522;2023-07-22T09:41:31;5.90;;;2.30;;
68910;SDS011;55953;51.650;-0.522;2023-07-22T09:44:03;7.00;;;2.50;;
68910;SDS011;55953;51.650;-0.522;2023-07-22T09:46:32;6.00;;;2.40;;
68910;SDS011;55953;51.650;-0.522;2023-07-22T09:51:34;5.90;;;2.10;;
68910;SDS011;55953;51.650;-0.522;2023-07-22T09:54:19;6.40;;;2.30;;
68910;SDS011;55953;51.650;-0.522;2023-07-22T09:56:48;5.10;;;2.20;;
68910;SDS011;55953;51.650;-0.522;2023-07-22T09:59:21;8.20;;;2.80;;
68910;SDS011;55953;51.650;-0.522;2023-07-22T10:01:51;5.60;;;2.50;;
68910;SDS011;55953;51.650;-0.522;2023-07-22T10:04:21;4.30;;;2.40;;
68910;SDS011;55953;51.650;-0.522;2023-07-22T10:06:52;6.10;;;2.40;;
68910;SDS011;55953;51.650;-0.522;2023-07-22T10:09:21;6.20;;;2.70;;
68910;SDS011;55953;51.650;-0.522;2023-07-22T10:11:52;5.40;;;2.40;;
68910;SDS011;55953;51.650;-0.522;2023-07-22T10:14:20;4.80;;;2.50;;
68910;SDS011;55953;51.650;-0.522;2023-07-22T10:16:49;7.10;;;3.10;;
68910;SDS011;55953;51.650;-0.522;2023-07-22T10:19:17;7.40;;;3.00;;
68910;SDS011;55953;51.650;-0.522;2023-07-22T10:21:45;6.20;;;2.80;;
68910;SDS011;55953;51.650;-0.522;2023-07-22T10:24:13;6.90;;;2.90;;
68910;SDS011;55953;51.650;-0.522;2023-07-22T10:26:41;6.40;;;2.50;;
68910;SDS011;55953;51.650;-0.522;2023-07-22T10:29:14;4.80;;;2.60;;
68910;SDS011;55953;51.650;-0.522;2023-07-22T10:31:42;6.80;;;2.60;;
68910;SDS011;55953;51.650;-0.522;2023-07-22T10:34:10;6.40;;;2.60;;
68910;SDS011;55953;51.650;-0.522;2023-07-22T10:36:38;8.90;;;2.90;;
68910;SDS011;55953;51.650;-0.522;2023-07-22T10:39:06;6.70;;;2.80;;
68910;SDS011;55953;51.650;-0.522;2023-07-22T10:41:37;6.70;;;2.60;;
68910;SDS011;55953;51.650;-0.522;2023-07-22T10:44:09;4.50;;;2.30;;
68910;SDS011;55953;51.650;-0.522;2023-07-22T10:49:13;5.50;;;2.40;;
68910;SDS011;55953;51.650;-0.522;2023-07-22T10:51:47;6.30;;;2.80;;
68910;SDS011;55953;51.650;-0.522;2023-07-22T10:54:32;6.10;;;2.70;;
68910;SDS011;55953;51.650;-0.522;2023-07-22T10:57:03;7.50;;;2.80;;
68910;SDS011;55953;51.650;-0.522;2023-07-22T10:59:55;6.00;;;2.70;;
68910;SDS011;55953;51.650;-0.522;2023-07-22T11:02:28;5.50;;;2.60;;
68910;SDS011;55953;51.650;-0.522;2023-07-22T11:04:57;4.80;;;2.30;;
68910;SDS011;55953;51.650;-0.522;2023-07-22T11:07:41;7.30;;;3.00;;
68910;SDS011;55953;51.650;-0.522;2023-07-22T11:10:15;8.20;;;2.90;;
68910;SDS011;55953;51.650;-0.522;2023-07-22T11:12:46;7.70;;;2.90;;
68910;SDS011;55953;51.650;-0.522;2023-07-22T11:15:16;6.70;;;3.00;;
68910;SDS011;55953;51.650;-0.522;2023-07-22T11:17:45;7.30;;;2.70;;
68910;SDS011;55953;51.650;-0.522;2023-07-22T11:20:13;7.30;;;2.60;;
68910;SDS011;55953;51.650;-0.522;2023-07-22T11:22:41;6.50;;;2.80;;
68910;SDS011;55953;51.650;-0.522;2023-07-22T11:25:17;5.50;;;2.70;;
68910;SDS011;55953;51.650;-0.522;2023-07-22T11:27:46;6.80;;;3.30;;
68910;SDS011;55953;51.650;-0.522;2023-07-22T11:30:14;7.30;;;2.80;;
68910;SDS011;55953;51.650;-0.522;2023-07-22T11:32:42;7.80;;;3.50;;
68910;SDS011;55953;51.650;-0.522;2023-07-22T11:35:11;6.60;;;3.10;;
68910;SDS011;55953;51.650;-0.522;2023-07-22T11:37:39;6.70;;;3.00;;
68910;SDS011;55953;51.650;-0.522;2023-07-22T11:40:11;6.00;;;3.20;;
68910;SDS011;55953;51.650;-0.522;2023-07-22T11:42:41;6.20;;;3.00;;
68910;SDS011;55953;51.650;-0.522;2023-07-22T11:45:10;8.80;;;3.70;;
68910;SDS011;55953;51.650;-0.522;2023-07-22T11:47:38;7.80;;;3.10;;
68910;SDS011;55953;51.650;-0.522;2023-07-22T11:50:06;6.00;;;3.30;;
68910;SDS011;55953;51.650;-0.522;2023-07-22T11:52:34;6.00;;;3.20;;
68910;SDS011;55953;51.650;-0.522;2023-07-22T11:55:02;5.30;;;3.00;;
68910;SDS011;55953;51.650;-0.522;2023-07-22T11:57:31;7.60;;;2.90;;
68910;SDS011;55953;51.650;-0.522;2023-07-22T11:59:59;7.40;;;3.10;;
68910;SDS011;55953;51.650;-0.522;2023-07-22T12:02:28;6.10;;;3.00;;
68910;SDS011;55953;51.650;-0.522;2023-07-22T12:05:01;6.40;;;2.80;;
68910;SDS011;55953;51.650;-0.522;2023-07-22T12:07:35;7.00;;;3.10;;
68910;SDS011;55953;51.650;-0.522;2023-07-22T12:10:06;6.80;;;2.80;;
68910;SDS011;55953;51.650;-0.522;2023-07-22T12:15:17;6.90;;;3.10;;
68910;SDS011;55953;51.650;-0.522;2023-07-22T12:17:55;6.20;;;3.30;;
68910;SDS011;55953;51.650;-0.522;2023-07-22T12:20:28;6.00;;;3.00;;
68910;SDS011;55953;51.650;-0.522;2023-07-22T12:22:59;9.10;;;4.00;;
68910;SDS011;55953;51.650;-0.522;2023-07-22T12:25:27;7.90;;;3.50;;
68910;SDS011;55953;51.650;-0.522;2023-07-22T12:27:55;11.70;;;4.50;;
68910;SDS011;55953;51.650;-0.522;2023-07-22T12:30:23;10.10;;;4.30;;
68910;SDS011;55953;51.650;-0.522;2023-07-22T12:32:51;7.40;;;3.40;;
68910;SDS011;55953;51.650;-0.522;2023-07-22T12:35:19;8.50;;;3.80;;
68910;SDS011;55953;51.650;-0.522;2023-07-22T12:37:47;7.70;;;3.90;;
68910;SDS011;55953;51.650;-0.522;2023-07-22T12:40:15;6.60;;;3.40;;
68910;SDS011;55953;51.650;-0.522;2023-07-22T12:42:42;9.90;;;3.40;;
68910;SDS011;55953;51.650;-0.522;2023-07-22T12:45:10;7.50;;;3.40;;
68910;SDS011;55953;51.650;-0.522;2023-07-22T12:47:38;9.20;;;3.80;;
68910;SDS011;55953;51.650;-0.522;2023-07-22T12:50:06;7.30;;;3.40;;
68910;SDS011;55953;51.650;-0.522;2023-07-22T12:52:36;9.70;;;4.20;;
68910;SDS011;55953;51.650;-0.522;2023-07-22T12:55:05;8.10;;;3.90;;
68910;SDS011;55953;51.650;-0.522;2023-07-22T12:57:33;10.70;;;3.60;;
68910;SDS011;55953;51.650;-0.522;2023-07-22T13:00:01;8.40;;;3.20;;
68910;SDS011;55953;51.650;-0.522;2023-07-22T13:02:32;10.10;;;3.80;;
68910;SDS011;55953;51.650;-0.522;2023-07-22T13:04:59;7.40;;;3.70;;
68910;SDS011;55953;51.650;-0.522;2023-07-22T13:07:27;7.70;;;3.50;;
68910;SDS011;55953;51.650;-0.522;2023-07-22T13:09:56;7.90;;;3.50;;
68910;SDS011;55953;51.650;-0.522;2023-07-22T13:12:24;10.60;;;3.60;;
68910;SDS011;55953;51.650;-0.522;2023-07-22T13:14:53;7.50;;;3.60;;
68910;SDS011;55953;51.650;-0.522;2023-07-22T13:17:21;7.70;;;3.70;;
68910;SDS011;55953;51.650;-0.522;2023-07-22T13:19:49;9.40;;;3.60;;
68910;SDS011;55953;51.650;-0.522;2023-07-22T13:22:17;7.70;;;3.60;;
68910;SDS011;55953;51.650;-0.522;2023-07-22T13:24:45;7.50;;;3.70;;
68910;SDS011;55953;51.650;-0.522;2023-07-22T13:27:13;7.30;;;3.30;;
68910;SDS011;55953;51.650;-0.522;2023-07-22T13:29:41;6.70;;;3.40;;
68910;SDS011;55953;51.650;-0.522;2023-07-22T13:32:09;6.90;;;3.10;;
68910;SDS011;55953;51.650;-0.522;2023-07-22T13:34:36;8.70;;;3.70;;
68910;SDS011;55953;51.650;-0.522;2023-07-22T13:37:04;6.70;;;2.90;;
68910;SDS011;55953;51.650;-0.522;2023-07-22T13:39:34;7.10;;;3.30;;
68910;SDS011;55953;51.650;-0.522;2023-07-22T13:42:01;7.30;;;3.40;;
68910;SDS011;55953;51.650;-0.522;2023-07-22T13:44:29;8.90;;;3.60;;
68910;SDS011;55953;51.650;-0.522;2023-07-22T13:46:57;6.40;;;3.10;;
68910;SDS011;55953;51.650;-0.522;2023-07-22T13:49:25;6.30;;;3.30;;
68910;SDS011;55953;51.650;-0.522;2023-07-22T13:51:53;7.50;;;3.30;;
68910;SDS011;55953;51.650;-0.522;2023-07-22T13:54:20;8.00;;;4.00;;
68910;SDS011;55953;51.650;-0.522;2023-07-22T13:56:48;7.50;;;3.40;;
68910;SDS011;55953;51.650;-0.522;2023-07-22T13:59:16;8.70;;;4.20;;
68910;SDS011;55953;51.650;-0.522;2023-07-22T14:01:44;7.70;;;3.70;;
68910;SDS011;55953;51.650;-0.522;2023-07-22T14:04:11;10.80;;;4.70;;
68910;SDS011;55953;51.650;-0.522;2023-07-22T14:06:39;8.60;;;4.10;;
68910;SDS011;55953;51.650;-0.522;2023-07-22T14:09:07;11.20;;;4.00;;
68910;SDS011;55953;51.650;-0.522;2023-07-22T14:11:35;11.30;;;4.00;;
68910;SDS011;55953;51.650;-0.522;2023-07-22T14:14:03;12.30;;;5.30;;
68910;SDS011;55953;51.650;-0.522;2023-07-22T14:16:31;10.60;;;5.00;;
68910;SDS011;55953;51.650;-0.522;2023-07-22T14:19:01;13.90;;;6.30;;
68910;SDS011;55953;51.650;-0.522;2023-07-22T14:21:29;13.40;;;6.20;;
68910;SDS011;55953;51.650;-0.522;2023-07-22T14:23:57;11.50;;;5.90;;
68910;SDS011;55953;51.650;-0.522;2023-07-22T14:26:24;14.80;;;6.70;;
68910;SDS011;55953;51.650;-0.522;2023-07-22T14:28:52;13.30;;;6.80;;
68910;SDS011;55953;51.650;-0.522;2023-07-22T14:31:20;14.30;;;7.20;;
68910;SDS011;55953;51.650;-0.522;2023-07-22T14:33:48;14.60;;;7.40;;
68910;SDS011;55953;51.650;-0.522;2023-07-22T14:36:16;11.10;;;5.70;;
68910;SDS011;55953;51.650;-0.522;2023-07-22T14:38:43;9.90;;;5.40;;
68910;SDS011;55953;51.650;-0.522;2023-07-22T14:41:11;15.40;;;5.60;;
68910;SDS011;55953;51.650;-0.522;2023-07-22T14:43:39;10.40;;;4.70;;
68910;SDS011;55953;51.650;-0.522;2023-07-22T14:46:07;9.90;;;4.90;;
68910;SDS011;55953;51.650;-0.522;2023-07-22T14:48:35;8.40;;;4.80;;
68910;SDS011;55953;51.650;-0.522;2023-07-22T14:51:03;9.80;;;5.50;;
68910;SDS011;55953;51.650;-0.522;2023-07-22T14:53:31;10.70;;;6.00;;
68910;SDS011;55953;51.650;-0.522;2023-07-22T14:55:59;9.10;;;4.90;;